Time;durP1;ratioP1;P1;durP2;ratioP2;P2;SDS_P1;SDS_P2;PMS_P1;PMS_P2;Temp;Humidity;BMP_temperature;BMP_pressure;BME280_temperature;BME280_humidity;BME280_pressure;Samples;Min_cycle;Max_cycle;Signal;HPM_P1;HPM_P2
2021/07/10 00:01:36;;;;;;;24.70;14.07;;;;;;;;;;5061416;28;20322;-76
2021/07/10 00:04:05;;;;;;;24.20;13.57;;;;;;;;;;5060517;28;20202;-77
2021/07/10 00:06:32;;;;;;;26.03;13.33;;;;;;;;;;5055212;28;20218;-77
2021/07/10 00:09:00;;;;;;;20.13;13.33;;;;;;;;;;5051231;28;20592;-77
2021/07/10 00:11:28;;;;;;;24.83;13.93;;;;;;;;;;5059117;28;20513;-77
2021/07/10 00:13:55;;;;;;;28.87;13.63;;;;;;;;;;5052780;28;20306;-77
2021/07/10 00:16:22;;;;;;;21.50;12.87;;;;;;;;;;5056360;28;20205;-77
2021/07/10 00:18:50;;;;;;;20.93;12.13;;;;;;;;;;5055064;28;20587;-77
2021/07/10 00:21:17;;;;;;;21.13;12.97;;;;;;;;;;5057433;28;20600;-77
2021/07/10 00:23:44;;;;;;;19.97;12.83;;;;;;;;;;5054990;28;20202;-77
2021/07/10 00:26:11;;;;;;;21.93;13.03;;;;;;;;;;5057188;28;20218;-76
2021/07/10 00:28:40;;;;;;;25.53;13.43;;;;;;;;;;5055256;28;20317;-77
2021/07/10 00:31:07;;;;;;;24.13;12.97;;;;;;;;;;5055377;28;20692;-77
2021/07/10 00:33:34;;;;;;;21.47;13.60;;;;;;;;;;5056163;28;20218;-76
2021/07/10 00:36:01;;;;;;;22.27;13.03;;;;;;;;;;5061153;28;20198;-77
2021/07/10 00:38:28;;;;;;;21.07;12.47;;;;;;;;;;5058282;28;20203;-77
2021/07/10 00:40:55;;;;;;;22.37;13.63;;;;;;;;;;5058434;28;20755;-77
2021/07/10 00:43:23;;;;;;;20.23;12.57;;;;;;;;;;5060801;28;20293;-77
2021/07/10 00:45:51;;;;;;;21.53;12.63;;;;;;;;;;5063405;28;20237;-77
2021/07/10 00:48:18;;;;;;;19.63;12.20;;;;;;;;;;5057990;28;20289;-76
2021/07/10 00:50:46;;;;;;;21.90;13.20;;;;;;;;;;5055312;28;20306;-76
2021/07/10 00:53:13;;;;;;;19.37;12.33;;;;;;;;;;5059610;28;20209;-77
2021/07/10 00:55:40;;;;;;;18.13;12.00;;;;;;;;;;5054545;28;20300;-77
2021/07/10 00:58:08;;;;;;;21.10;12.30;;;;;;;;;;5056356;28;20210;-77
2021/07/10 01:00:35;;;;;;;17.90;12.37;;;;;;;;;;5055412;28;20227;-76
2021/07/10 01:03:04;;;;;;;19.97;12.93;;;;;;;;;;5063464;28;20206;-77
2021/07/10 01:05:34;;;;;;;26.90;13.60;;;;;;;;;;5057793;28;20650;-77
2021/07/10 01:08:01;;;;;;;22.53;13.27;;;;;;;;;;5053927;28;20284;-77
2021/07/10 01:10:28;;;;;;;21.13;13.57;;;;;;;;;;5060085;28;20213;-76
2021/07/10 01:12:56;;;;;;;25.87;12.83;;;;;;;;;;5059758;28;20676;-77
2021/07/10 01:15:24;;;;;;;21.93;13.07;;;;;;;;;;5061008;28;20209;-76
2021/07/10 01:17:53;;;;;;;20.07;12.80;;;;;;;;;;5050492;28;20205;-77
2021/07/10 01:20:23;;;;;;;20.77;13.17;;;;;;;;;;5056732;28;20203;-77
2021/07/10 01:22:51;;;;;;;22.13;13.20;;;;;;;;;;5055453;28;20295;-77
2021/07/10 01:25:20;;;;;;;25.00;12.70;;;;;;;;;;5053771;28;20763;-77
2021/07/10 01:27:47;;;;;;;20.70;13.93;;;;;;;;;;5053091;28;20226;-77
2021/07/10 01:30:15;;;;;;;29.93;13.67;;;;;;;;;;5057114;28;20233;-77
2021/07/10 01:32:43;;;;;;;33.03;14.23;;;;;;;;;;5054193;28;20207;-77
2021/07/10 01:35:11;;;;;;;23.07;13.93;;;;;;;;;;5053857;28;20607;-77
2021/07/10 01:37:41;;;;;;;34.77;13.87;;;;;;;;;;5051448;28;20202;-77
2021/07/10 01:40:11;;;;;;;27.57;13.90;;;;;;;;;;5066035;28;20202;-77
2021/07/10 01:42:39;;;;;;;24.03;13.57;;;;;;;;;;5052252;28;20727;-77
2021/07/10 01:45:06;;;;;;;25.33;14.13;;;;;;;;;;5057675;28;20211;-77
2021/07/10 01:47:34;;;;;;;24.90;12.97;;;;;;;;;;5054934;28;20228;-77
2021/07/10 01:50:01;;;;;;;24.57;13.67;;;;;;;;;;5057046;28;20715;-76
2021/07/10 01:52:28;;;;;;;27.10;14.20;;;;;;;;;;5055533;28;20254;-77
2021/07/10 01:54:55;;;;;;;28.30;14.10;;;;;;;;;;5054094;28;20293;-77
2021/07/10 01:57:24;;;;;;;31.73;14.50;;;;;;;;;;5054930;28;20210;-77
2021/07/10 01:59:51;;;;;;;32.07;15.67;;;;;;;;;;5056397;28;20296;-77
2021/07/10 02:02:18;;;;;;;30.60;16.33;;;;;;;;;;5057507;28;20219;-77
2021/07/10 02:04:45;;;;;;;41.40;17.07;;;;;;;;;;5058582;28;20281;-77
2021/07/10 02:07:13;;;;;;;41.67;17.73;;;;;;;;;;5054347;28;20318;-77
2021/07/10 02:09:40;;;;;;;40.20;17.30;;;;;;;;;;5052976;28;20305;-76
2021/07/10 02:12:07;;;;;;;43.63;18.67;;;;;;;;;;5053791;28;20230;-77
2021/07/10 02:14:36;;;;;;;43.57;18.67;;;;;;;;;;5060586;28;20593;-76
2021/07/10 02:17:03;;;;;;;42.70;18.87;;;;;;;;;;5055080;28;20249;-77
2021/07/10 02:19:30;;;;;;;47.07;18.03;;;;;;;;;;5059359;28;20223;-77
2021/07/10 02:21:58;;;;;;;44.07;15.90;;;;;;;;;;5055252;28;20258;-77
2021/07/10 02:24:25;;;;;;;62.10;15.23;;;;;;;;;;5054831;28;20207;-77
2021/07/10 02:26:53;;;;;;;66.73;16.27;;;;;;;;;;5055451;28;20310;-77
2021/07/10 02:29:20;;;;;;;56.57;16.30;;;;;;;;;;5054462;28;20210;-77
2021/07/10 02:31:48;;;;;;;54.43;15.93;;;;;;;;;;5063956;28;20581;-77
2021/07/10 02:34:16;;;;;;;61.80;15.97;;;;;;;;;;5063189;28;20393;-77
2021/07/10 02:36:43;;;;;;;55.80;17.10;;;;;;;;;;5055500;28;20581;-77
2021/07/10 02:39:10;;;;;;;64.13;17.27;;;;;;;;;;5054414;28;20732;-77
2021/07/10 02:41:37;;;;;;;56.27;17.53;;;;;;;;;;5054907;28;20226;-77
2021/07/10 02:44:05;;;;;;;47.93;17.77;;;;;;;;;;5062214;28;20567;-77
2021/07/10 02:46:32;;;;;;;66.13;17.23;;;;;;;;;;5064909;28;20229;-77
2021/07/10 02:49:01;;;;;;;81.90;18.00;;;;;;;;;;5064904;28;20226;-77
2021/07/10 02:51:28;;;;;;;37.80;17.07;;;;;;;;;;5057367;28;20223;-77
2021/07/10 02:53:56;;;;;;;37.50;17.03;;;;;;;;;;5055938;28;20294;-77
2021/07/10 02:56:23;;;;;;;68.93;18.10;;;;;;;;;;5054995;28;20249;-77
2021/07/10 02:58:50;;;;;;;62.03;17.53;;;;;;;;;;5062973;28;20209;-77
2021/07/10 03:01:18;;;;;;;55.63;16.07;;;;;;;;;;5054271;28;20242;-77
2021/07/10 03:03:45;;;;;;;27.47;15.37;;;;;;;;;;5056500;28;20392;-77
2021/07/10 03:06:14;;;;;;;63.70;16.70;;;;;;;;;;5054841;28;20264;-77
2021/07/10 03:08:42;;;;;;;41.33;17.23;;;;;;;;;;5057524;28;20213;-77
2021/07/10 03:11:10;;;;;;;54.03;17.57;;;;;;;;;;5052169;28;20658;-77
2021/07/10 03:13:37;;;;;;;34.77;17.93;;;;;;;;;;5063726;28;20217;-77
2021/07/10 03:16:05;;;;;;;30.20;16.83;;;;;;;;;;5055648;28;20202;-77
2021/07/10 03:18:32;;;;;;;35.80;17.87;;;;;;;;;;5054341;28;20360;-77
2021/07/10 03:20:59;;;;;;;37.77;18.23;;;;;;;;;;5058777;28;20662;-77
2021/07/10 03:23:28;;;;;;;57.00;17.63;;;;;;;;;;5057241;28;20293;-76
2021/07/10 03:25:55;;;;;;;53.57;16.53;;;;;;;;;;5061366;28;20293;-77
2021/07/10 03:28:22;;;;;;;54.23;15.90;;;;;;;;;;5062752;28;20317;-76
2021/07/10 03:30:52;;;;;;;42.10;14.47;;;;;;;;;;5068399;28;20256;-77
2021/07/10 03:33:19;;;;;;;54.97;15.67;;;;;;;;;;5052215;28;20215;-77
2021/07/10 03:35:46;;;;;;;23.57;14.37;;;;;;;;;;5054480;28;20631;-77
2021/07/10 03:38:13;;;;;;;39.57;16.63;;;;;;;;;;5051855;28;20209;-77
2021/07/10 03:40:42;;;;;;;53.90;18.30;;;;;;;;;;5053174;28;20432;-77
2021/07/10 03:43:09;;;;;;;55.57;16.53;;;;;;;;;;5052709;28;20687;-76
2021/07/10 03:45:36;;;;;;;51.33;17.50;;;;;;;;;;5055813;28;20563;-77
2021/07/10 03:48:04;;;;;;;44.73;17.27;;;;;;;;;;5055845;28;20696;-77
2021/07/10 03:50:31;;;;;;;59.63;19.33;;;;;;;;;;5053546;28;20551;-77
2021/07/10 03:52:58;;;;;;;58.60;18.63;;;;;;;;;;5062901;28;20570;-77
2021/07/10 03:55:25;;;;;;;45.70;17.87;;;;;;;;;;5056415;28;20631;-77
2021/07/10 03:57:54;;;;;;;43.80;18.37;;;;;;;;;;5051856;28;20199;-77
2021/07/10 04:00:23;;;;;;;48.73;17.43;;;;;;;;;;5053091;28;20575;-77
2021/07/10 04:02:50;;;;;;;37.63;17.87;;;;;;;;;;5054351;28;20207;-77
2021/07/10 04:05:17;;;;;;;37.13;16.77;;;;;;;;;;5053076;28;20238;-77
2021/07/10 04:07:44;;;;;;;39.90;16.77;;;;;;;;;;5054407;28;20795;-77
2021/07/10 04:10:13;;;;;;;48.83;17.87;;;;;;;;;;5050809;28;20203;-77
2021/07/10 04:12:40;;;;;;;51.23;16.60;;;;;;;;;;5051993;28;20203;-77
2021/07/10 04:15:09;;;;;;;37.47;18.67;;;;;;;;;;5053133;28;20205;-77
2021/07/10 04:17:37;;;;;;;38.53;17.43;;;;;;;;;;5055294;28;20209;-77
2021/07/10 04:20:04;;;;;;;43.93;16.67;;;;;;;;;;5059413;28;20206;-77
2021/07/10 04:22:32;;;;;;;59.07;16.07;;;;;;;;;;5054747;28;20320;-77
2021/07/10 04:25:03;;;;;;;33.53;17.03;;;;;;;;;;5054079;28;20233;-77
2021/07/10 04:27:30;;;;;;;28.60;14.27;;;;;;;;;;5054999;28;20222;-77
2021/07/10 04:29:57;;;;;;;47.07;15.10;;;;;;;;;;5057718;28;20203;-77
2021/07/10 04:32:26;;;;;;;30.57;14.87;;;;;;;;;;5054817;28;20689;-76
2021/07/10 04:34:53;;;;;;;29.27;14.17;;;;;;;;;;5053522;28;20201;-77
2021/07/10 04:37:20;;;;;;;33.43;13.83;;;;;;;;;;5050989;28;20238;-77
2021/07/10 04:39:47;;;;;;;58.17;16.00;;;;;;;;;;5054055;28;20209;-77
2021/07/10 04:42:14;;;;;;;22.27;13.37;;;;;;;;;;5053146;28;20227;-77
2021/07/10 04:44:42;;;;;;;22.77;14.27;;;;;;;;;;5068344;22;20229;-74
2021/07/10 04:47:10;;;;;;;17.20;11.67;;;;;;;;;;5043941;28;20227;-75
2021/07/10 04:49:38;;;;;;;20.83;12.43;;;;;;;;;;5044112;28;20242;-74
2021/07/10 04:52:30;;;;;;;18.33;12.73;;;;;;;;;;5043542;28;20232;-74
2021/07/10 04:54:57;;;;;;;17.63;11.50;;;;;;;;;;5039819;28;20297;-74
2021/07/10 04:57:24;;;;;;;17.20;11.13;;;;;;;;;;5034659;28;20195;-74
2021/07/10 04:59:52;;;;;;;19.93;12.33;;;;;;;;;;5041161;28;20206;-74
2021/07/10 05:02:19;;;;;;;25.63;12.63;;;;;;;;;;5039835;28;20230;-74
2021/07/10 05:04:47;;;;;;;22.87;12.50;;;;;;;;;;5039340;28;20231;-74
2021/07/10 05:07:14;;;;;;;21.57;11.90;;;;;;;;;;5042969;28;20302;-74
2021/07/10 05:09:41;;;;;;;23.63;12.17;;;;;;;;;;5040957;28;20652;-74
2021/07/10 05:12:09;;;;;;;26.17;12.80;;;;;;;;;;5044821;28;20318;-74
2021/07/10 05:14:36;;;;;;;21.20;13.97;;;;;;;;;;5038947;28;20199;-74
2021/07/10 05:17:03;;;;;;;23.77;13.53;;;;;;;;;;5043476;28;20288;-74
2021/07/10 05:19:30;;;;;;;19.93;13.07;;;;;;;;;;5033099;28;20208;-74
2021/07/10 05:21:59;;;;;;;25.53;13.33;;;;;;;;;;5041292;28;20230;-74
2021/07/10 05:24:26;;;;;;;21.53;12.17;;;;;;;;;;5041003;28;20195;-74
2021/07/10 05:26:53;;;;;;;23.73;11.57;;;;;;;;;;5036870;28;20238;-74
2021/07/10 05:29:20;;;;;;;23.27;12.07;;;;;;;;;;5039103;28;20214;-74
2021/07/10 05:31:48;;;;;;;30.57;12.57;;;;;;;;;;5034515;28;20399;-75
2021/07/10 05:34:15;;;;;;;20.20;12.50;;;;;;;;;;5040322;28;20199;-74
2021/07/10 05:36:42;;;;;;;17.53;10.13;;;;;;;;;;5045798;28;20298;-71
2021/07/10 05:39:11;;;;;;;19.67;11.23;;;;;;;;;;5046189;28;20231;-74
2021/07/10 05:41:38;;;;;;;24.03;12.10;;;;;;;;;;5040160;28;20278;-74
2021/07/10 05:44:05;;;;;;;18.83;11.77;;;;;;;;;;5041321;28;20225;-75
2021/07/10 05:46:32;;;;;;;21.47;12.17;;;;;;;;;;5041346;28;20209;-76
2021/07/10 05:49:00;;;;;;;23.67;13.77;;;;;;;;;;5041510;28;20232;-76
2021/07/10 05:51:27;;;;;;;24.53;13.03;;;;;;;;;;5035496;28;20237;-75
2021/07/10 05:53:54;;;;;;;32.47;11.43;;;;;;;;;;5032040;28;20203;-74
2021/07/10 05:56:22;;;;;;;27.03;13.63;;;;;;;;;;5041117;28;20207;-74
2021/07/10 05:58:50;;;;;;;29.80;13.43;;;;;;;;;;5037243;28;20286;-74
2021/07/10 06:01:17;;;;;;;28.00;14.27;;;;;;;;;;5036828;28;20220;-74
2021/07/10 06:03:44;;;;;;;28.10;14.77;;;;;;;;;;5036826;28;20199;-73
2021/07/10 06:06:11;;;;;;;44.00;14.90;;;;;;;;;;5035179;28;20558;-74
2021/07/10 06:08:38;;;;;;;39.53;13.47;;;;;;;;;;5030139;28;20302;-75
2021/07/10 06:11:05;;;;;;;24.27;13.37;;;;;;;;;;5033055;28;20234;-75
2021/07/10 06:13:34;;;;;;;21.50;12.87;;;;;;;;;;5027208;28;20605;-75
2021/07/10 06:16:01;;;;;;;26.00;13.17;;;;;;;;;;5029910;28;20215;-75
2021/07/10 06:18:28;;;;;;;22.37;12.77;;;;;;;;;;5028272;28;20725;-75
2021/07/10 06:20:55;;;;;;;20.93;12.70;;;;;;;;;;5028775;28;20219;-75
2021/07/10 06:23:22;;;;;;;18.10;11.43;;;;;;;;;;5033048;28;20696;-76
2021/07/10 06:25:50;;;;;;;21.20;12.77;;;;;;;;;;5031547;28;20214;-75
2021/07/10 06:28:17;;;;;;;22.77;13.30;;;;;;;;;;5037549;28;20705;-76
2021/07/10 06:30:45;;;;;;;22.40;14.33;;;;;;;;;;5036190;28;20641;-75
2021/07/10 06:33:13;;;;;;;25.57;15.90;;;;;;;;;;5031301;28;20294;-73
2021/07/10 06:35:40;;;;;;;29.77;16.40;;;;;;;;;;5029049;28;20261;-75
2021/07/10 06:38:07;;;;;;;32.10;17.50;;;;;;;;;;5032106;28;20294;-75
2021/07/10 06:40:35;;;;;;;27.43;15.97;;;;;;;;;;5033323;28;20285;-76
2021/07/10 06:43:02;;;;;;;26.27;15.73;;;;;;;;;;5035541;28;20551;-75
2021/07/10 06:45:31;;;;;;;22.87;15.30;;;;;;;;;;5032154;28;20254;-76
2021/07/10 06:48:01;;;;;;;27.73;16.60;;;;;;;;;;5029991;28;20412;-76
2021/07/10 06:50:29;;;;;;;22.60;14.97;;;;;;;;;;5028956;28;20208;-75
2021/07/10 06:52:56;;;;;;;28.67;16.57;;;;;;;;;;5031945;28;20291;-76
2021/07/10 06:55:23;;;;;;;28.30;15.27;;;;;;;;;;5032711;28;20299;-76
2021/07/10 06:57:50;;;;;;;23.20;14.73;;;;;;;;;;5037174;28;20287;-75
2021/07/10 07:00:19;;;;;;;20.77;14.30;;;;;;;;;;5041337;28;20218;-76
2021/07/10 07:02:46;;;;;;;23.53;14.37;;;;;;;;;;5041323;28;20203;-76
2021/07/10 07:05:15;;;;;;;19.53;12.40;;;;;;;;;;5036580;28;20236;-76
2021/07/10 07:07:42;;;;;;;20.67;12.93;;;;;;;;;;5035170;28;20211;-75
2021/07/10 07:10:11;;;;;;;23.53;13.13;;;;;;;;;;5029660;28;20208;-76
2021/07/10 07:12:38;;;;;;;17.87;12.47;;;;;;;;;;5030513;28;20235;-75
2021/07/10 07:15:06;;;;;;;18.53;11.67;;;;;;;;;;5043111;28;20291;-73
2021/07/10 07:17:33;;;;;;;17.67;11.73;;;;;;;;;;5039978;28;20211;-74
2021/07/10 07:20:00;;;;;;;14.70;11.13;;;;;;;;;;5031611;28;20196;-75
2021/07/10 07:22:29;;;;;;;15.10;10.67;;;;;;;;;;5036909;28;20313;-75
2021/07/10 07:24:56;;;;;;;13.80;8.90;;;;;;;;;;5039158;28;20330;-75
2021/07/10 07:27:23;;;;;;;14.23;8.57;;;;;;;;;;5033232;28;20208;-74
2021/07/10 07:29:50;;;;;;;10.90;7.90;;;;;;;;;;5039472;28;20243;-75
2021/07/10 07:32:18;;;;;;;12.83;9.40;;;;;;;;;;5035190;28;20229;-75
2021/07/10 07:34:47;;;;;;;11.47;9.00;;;;;;;;;;5042606;28;20207;-76
2021/07/10 07:37:15;;;;;;;12.50;7.97;;;;;;;;;;5038319;28;20591;-75
2021/07/10 07:39:46;;;;;;;10.10;7.80;;;;;;;;;;5036538;28;20199;-76
2021/07/10 07:42:13;;;;;;;12.77;8.10;;;;;;;;;;5036667;28;20232;-75
2021/07/10 07:44:41;;;;;;;13.20;8.00;;;;;;;;;;5038566;28;20214;-76
2021/07/10 07:47:11;;;;;;;10.67;7.90;;;;;;;;;;5039027;28;20207;-75
2021/07/10 07:49:38;;;;;;;11.73;7.93;;;;;;;;;;5036853;28;20510;-76
2021/07/10 07:54:55;;;;;;;9.20;7.00;;;;;;;;;;5029897;28;20709;-76
2021/07/10 07:57:22;;;;;;;9.70;7.07;;;;;;;;;;5036844;28;20210;-76
2021/07/10 07:59:49;;;;;;;10.20;7.43;;;;;;;;;;5039794;28;20199;-75
2021/07/10 08:02:16;;;;;;;11.03;7.43;;;;;;;;;;5039758;28;20233;-75
2021/07/10 08:04:43;;;;;;;12.50;7.10;;;;;;;;;;5038322;28;20209;-74
2021/07/10 08:07:10;;;;;;;12.73;7.47;;;;;;;;;;5035829;28;20290;-76
2021/07/10 08:09:38;;;;;;;10.43;7.83;;;;;;;;;;5036472;28;20223;-76
2021/07/10 08:12:08;;;;;;;9.40;7.37;;;;;;;;;;5035364;28;20234;-74
2021/07/10 08:14:35;;;;;;;11.03;7.30;;;;;;;;;;5039591;28;20199;-75
2021/07/10 08:17:02;;;;;;;9.67;7.03;;;;;;;;;;5038451;28;20286;-76
2021/07/10 08:19:30;;;;;;;10.43;6.97;;;;;;;;;;5039590;28;20291;-76
2021/07/10 08:21:57;;;;;;;9.30;6.37;;;;;;;;;;5037778;28;20299;-76
2021/07/10 08:24:24;;;;;;;9.37;6.17;;;;;;;;;;5045464;28;20306;-76
2021/07/10 08:26:51;;;;;;;7.67;6.03;;;;;;;;;;5038913;28;20234;-76
2021/07/10 08:29:20;;;;;;;9.23;7.00;;;;;;;;;;5044422;28;20222;-76
2021/07/10 08:31:47;;;;;;;8.00;5.93;;;;;;;;;;5037111;28;20224;-76
2021/07/10 08:34:14;;;;;;;7.73;6.13;;;;;;;;;;5036299;28;20212;-76
2021/07/10 08:36:41;;;;;;;13.03;6.57;;;;;;;;;;5035839;28;20255;-76
2021/07/10 08:39:09;;;;;;;7.70;6.20;;;;;;;;;;5040538;28;20685;-76
2021/07/10 08:41:36;;;;;;;6.10;4.93;;;;;;;;;;5566945;22;20259;-74
2021/07/10 08:44:04;;;;;;;7.37;5.57;;;;;;;;;;5079634;28;20300;-76
2021/07/10 08:46:34;;;;;;;8.77;5.30;;;;;;;;;;5077369;28;20226;-76
2021/07/10 08:49:01;;;;;;;10.10;5.37;;;;;;;;;;5081555;28;20328;-75
2021/07/10 08:51:28;;;;;;;7.23;5.63;;;;;;;;;;5075078;28;20574;-75
2021/07/10 08:53:55;;;;;;;7.20;5.67;;;;;;;;;;5083171;28;20272;-76
2021/07/10 08:56:23;;;;;;;8.53;5.90;;;;;;;;;;5078294;28;20290;-75
2021/07/10 08:58:50;;;;;;;11.10;6.03;;;;;;;;;;5078330;28;20313;-75
2021/07/10 09:01:17;;;;;;;8.40;6.20;;;;;;;;;;5078340;28;20255;-73
2021/07/10 09:03:45;;;;;;;8.37;6.10;;;;;;;;;;5078432;28;20205;-75
2021/07/10 09:06:13;;;;;;;6.73;5.37;;;;;;;;;;5080270;28;20224;-74
2021/07/10 09:08:41;;;;;;;9.07;5.53;;;;;;;;;;5074285;28;20626;-74
2021/07/10 09:11:11;;;;;;;8.53;5.63;;;;;;;;;;5076639;28;20222;-75
2021/07/10 09:13:39;;;;;;;8.03;5.30;;;;;;;;;;5076141;28;20694;-74
2021/07/10 09:16:08;;;;;;;9.30;6.40;;;;;;;;;;5072554;28;20242;-75
2021/07/10 09:18:43;;;;;;;8.60;4.80;;;;;;;;;;5077182;28;20196;-75
2021/07/10 09:21:13;;;;;;;9.90;5.53;;;;;;;;;;5074403;28;20235;-75
2021/07/10 09:23:41;;;;;;;7.97;5.50;;;;;;;;;;5074785;28;20206;-75
2021/07/10 09:26:29;;;;;;;9.33;5.63;;;;;;;;;;5080176;28;20209;-75
2021/07/10 09:28:58;;;;;;;8.33;5.63;;;;;;;;;;5075392;28;20222;-75
2021/07/10 09:31:27;;;;;;;9.30;5.90;;;;;;;;;;5075044;28;20222;-75
2021/07/10 09:34:01;;;;;;;8.43;6.03;;;;;;;;;;5074973;28;20293;-74
2021/07/10 09:36:32;;;;;;;10.10;5.37;;;;;;;;;;5079132;28;20288;-76
2021/07/10 09:39:00;;;;;;;8.47;5.87;;;;;;;;;;5078283;28;20285;-74
2021/07/10 09:41:29;;;;;;;8.00;5.03;;;;;;;;;;5078845;28;20264;-74
2021/07/10 09:44:05;;;;;;;6.97;5.27;;;;;;;;;;5081687;28;20305;-74
2021/07/10 09:46:32;;;;;;;8.27;5.57;;;;;;;;;;5086501;28;20205;-74
2021/07/10 09:49:00;;;;;;;6.07;4.87;;;;;;;;;;5083410;28;20251;-75
2021/07/10 09:51:28;;;;;;;6.53;5.27;;;;;;;;;;5082612;28;20225;-75
2021/07/10 09:54:03;;;;;;;8.17;6.17;;;;;;;;;;5088887;28;20231;-74
2021/07/10 09:56:31;;;;;;;7.23;5.60;;;;;;;;;;5077448;28;20201;-75
2021/07/10 09:58:59;;;;;;;6.93;5.43;;;;;;;;;;5080831;28;20274;-74
2021/07/10 10:01:40;;;;;;;7.97;6.30;;;;;;;;;;5083601;27;20679;-75
2021/07/10 10:04:20;;;;;;;7.83;5.00;;;;;;;;;;5083156;28;20720;-74
2021/07/10 10:06:48;;;;;;;8.03;5.57;;;;;;;;;;5078259;28;20205;-75
2021/07/10 10:09:17;;;;;;;7.57;5.13;;;;;;;;;;5081311;28;20237;-75
2021/07/10 10:11:52;;;;;;;7.47;5.37;;;;;;;;;;5074740;28;20513;-75
2021/07/10 10:14:19;;;;;;;9.57;5.20;;;;;;;;;;5078426;28;20656;-75
2021/07/10 10:16:49;;;;;;;6.53;4.97;;;;;;;;;;5079239;28;20646;-75
2021/07/10 10:19:16;;;;;;;6.93;4.60;;;;;;;;;;5075152;28;20655;-74
2021/07/10 10:21:44;;;;;;;7.10;4.90;;;;;;;;;;5074440;28;20222;-75
2021/07/10 10:24:12;;;;;;;8.37;4.70;;;;;;;;;;5060124;28;20674;-74
2021/07/10 10:26:39;;;;;;;6.87;5.00;;;;;;;;;;5062922;28;20212;-74
2021/07/10 10:29:08;;;;;;;15.70;4.73;;;;;;;;;;5062619;28;20212;-74
2021/07/10 10:31:35;;;;;;;7.83;4.50;;;;;;;;;;5061634;28;20478;-74
2021/07/10 10:34:04;;;;;;;5.00;4.33;;;;;;;;;;5062881;28;20590;-75
2021/07/10 10:36:31;;;;;;;5.90;4.30;;;;;;;;;;5070223;28;20224;-75
2021/07/10 10:38:58;;;;;;;7.63;4.77;;;;;;;;;;5066559;28;20203;-75
2021/07/10 10:41:26;;;;;;;5.57;4.13;;;;;;;;;;5069483;28;20592;-75
2021/07/10 10:43:55;;;;;;;6.40;4.43;;;;;;;;;;5067511;28;20194;-75
2021/07/10 10:46:23;;;;;;;6.93;4.23;;;;;;;;;;5011435;22;20221;-75
2021/07/10 10:48:51;;;;;;;5.27;4.20;;;;;;;;;;4977544;28;20228;-75
2021/07/10 10:51:30;;;;;;;5.73;4.20;;;;;;;;;;4971501;28;20222;-76
2021/07/10 10:54:24;;;;;;;5.53;4.43;;;;;;;;;;4979129;28;20205;-76
2021/07/10 10:56:52;;;;;;;7.73;4.20;;;;;;;;;;4974773;28;20209;-76
2021/07/10 10:59:35;;;;;;;6.23;4.30;;;;;;;;;;4974096;28;20298;-76
2021/07/10 11:02:02;;;;;;;6.67;4.47;;;;;;;;;;4970427;28;20239;-77
2021/07/10 11:04:56;;;;;;;5.93;4.20;;;;;;;;;;4973135;28;20209;-78
2021/07/10 11:07:25;;;;;;;6.63;4.40;;;;;;;;;;4966395;28;20209;-76
2021/07/10 11:10:08;;;;;;;6.77;4.17;;;;;;;;;;4973482;28;20206;-75
2021/07/10 11:12:52;;;;;;;5.03;4.17;;;;;;;;;;4958268;28;20316;-75
2021/07/10 11:15:38;;;;;;;5.37;4.20;;;;;;;;;;4963357;28;20261;-77
2021/07/10 11:18:06;;;;;;;5.37;3.80;;;;;;;;;;4959601;28;20273;-79
2021/07/10 11:20:43;;;;;;;5.13;3.83;;;;;;;;;;4956275;28;20684;-78
2021/07/10 11:23:12;;;;;;;5.73;4.10;;;;;;;;;;4956360;28;20251;-79
2021/07/10 11:26:09;;;;;;;5.97;4.23;;;;;;;;;;4964245;28;20217;-77
2021/07/10 11:28:40;;;;;;;5.93;4.37;;;;;;;;;;4958350;28;20210;-78
2021/07/10 11:31:09;;;;;;;5.20;3.97;;;;;;;;;;4957961;28;20273;-77
2021/07/10 11:33:56;;;;;;;7.60;5.20;;;;;;;;;;4963820;28;20202;-76
2021/07/10 11:36:42;;;;;;;9.93;5.03;;;;;;;;;;4955322;28;20232;-74
2021/07/10 11:39:25;;;;;;;7.07;4.73;;;;;;;;;;4949420;28;20265;-74
2021/07/10 11:41:54;;;;;;;7.20;5.20;;;;;;;;;;4960940;28;20759;-74
2021/07/10 11:44:22;;;;;;;12.53;5.20;;;;;;;;;;4962949;28;20209;-74
2021/07/10 11:47:08;;;;;;;7.13;5.17;;;;;;;;;;4957876;28;20532;-74
2021/07/10 11:49:39;;;;;;;12.77;5.30;;;;;;;;;;4960261;28;20219;-74
2021/07/10 11:52:08;;;;;;;8.40;5.20;;;;;;;;;;4959322;28;20222;-74
2021/07/10 11:54:36;;;;;;;8.93;5.03;;;;;;;;;;4963125;28;20216;-74
2021/07/10 11:57:04;;;;;;;9.17;5.17;;;;;;;;;;4960404;28;20202;-74
2021/07/10 11:59:34;;;;;;;6.93;5.03;;;;;;;;;;4958522;28;20247;-74
2021/07/10 12:02:15;;;;;;;8.03;5.43;;;;;;;;;;4964428;28;20311;-74
2021/07/10 12:04:58;;;;;;;7.47;5.53;;;;;;;;;;4959969;28;20668;-74
2021/07/10 12:07:26;;;;;;;8.83;5.93;;;;;;;;;;4961382;28;20198;-74
2021/07/10 12:09:54;;;;;;;10.07;5.43;;;;;;;;;;4957917;28;20292;-74
2021/07/10 12:12:22;;;;;;;33.17;10.20;;;;;;;;;;4958514;28;20831;-74
2021/07/10 12:14:53;;;;;;;8.90;6.37;;;;;;;;;;4958400;28;20247;-74
2021/07/10 12:17:20;;;;;;;13.17;7.30;;;;;;;;;;4958512;28;20297;-74
2021/07/10 12:19:48;;;;;;;9.20;6.00;;;;;;;;;;4963423;28;20695;-74
2021/07/10 12:22:15;;;;;;;8.03;5.83;;;;;;;;;;4961967;28;20818;-74
2021/07/10 12:24:43;;;;;;;11.30;6.30;;;;;;;;;;4958461;28;20306;-73
2021/07/10 12:27:11;;;;;;;8.50;6.30;;;;;;;;;;4965007;28;20298;-76
2021/07/10 12:29:50;;;;;;;10.00;6.40;;;;;;;;;;4961244;28;20213;-76
2021/07/10 12:32:17;;;;;;;8.93;6.67;;;;;;;;;;4955282;28;20231;-76
2021/07/10 12:34:48;;;;;;;13.40;7.03;;;;;;;;;;4961140;28;20211;-76
2021/07/10 12:37:21;;;;;;;11.33;7.17;;;;;;;;;;4961955;28;20207;-76
2021/07/10 12:39:48;;;;;;;10.27;6.93;;;;;;;;;;4963171;28;20296;-75
2021/07/10 12:42:15;;;;;;;9.50;6.87;;;;;;;;;;4963346;28;20766;-74
2021/07/10 12:44:44;;;;;;;10.70;6.77;;;;;;;;;;4966913;28;20212;-74
2021/07/10 12:47:13;;;;;;;10.17;6.97;;;;;;;;;;4967027;28;20288;-75
2021/07/10 12:49:41;;;;;;;9.23;6.77;;;;;;;;;;4958689;28;20297;-74
2021/07/10 12:52:23;;;;;;;9.13;6.57;;;;;;;;;;4962220;28;20273;-74
2021/07/10 12:54:54;;;;;;;9.80;6.40;;;;;;;;;;4960291;28;20289;-74
2021/07/10 12:57:25;;;;;;;12.67;6.80;;;;;;;;;;4961933;28;20265;-74
2021/07/10 12:59:55;;;;;;;11.13;6.83;;;;;;;;;;4956639;28;20216;-74
2021/07/10 13:02:23;;;;;;;8.30;6.33;;;;;;;;;;4958617;28;20286;-74
2021/07/10 13:04:52;;;;;;;10.10;6.30;;;;;;;;;;4965397;28;20204;-74
2021/07/10 13:07:23;;;;;;;8.00;5.57;;;;;;;;;;4962468;28;20236;-74
2021/07/10 13:09:50;;;;;;;9.77;6.23;;;;;;;;;;4958469;28;20297;-74
2021/07/10 13:12:18;;;;;;;8.37;6.40;;;;;;;;;;4958037;28;20236;-74
2021/07/10 13:15:01;;;;;;;8.57;5.80;;;;;;;;;;4958126;28;20280;-77
2021/07/10 13:17:30;;;;;;;8.80;5.87;;;;;;;;;;4958658;28;20218;-77
2021/07/10 13:19:57;;;;;;;8.67;6.30;;;;;;;;;;4954877;28;20268;-77
2021/07/10 13:22:24;;;;;;;8.57;6.00;;;;;;;;;;4963848;28;21363;-76
2021/07/10 13:25:06;;;;;;;9.87;6.83;;;;;;;;;;4954049;28;20595;-77
2021/07/10 13:27:33;;;;;;;9.73;6.20;;;;;;;;;;4958579;28;20217;-76
2021/07/10 13:30:09;;;;;;;9.27;5.83;;;;;;;;;;4961836;28;20212;-76
2021/07/10 13:32:38;;;;;;;7.43;5.57;;;;;;;;;;4957019;28;20298;-76
2021/07/10 13:35:06;;;;;;;7.50;5.33;;;;;;;;;;4963787;28;20199;-76
2021/07/10 13:37:33;;;;;;;7.97;5.80;;;;;;;;;;4964269;28;20210;-76
2021/07/10 13:40:16;;;;;;;8.93;5.87;;;;;;;;;;4962241;28;20229;-76
2021/07/10 13:42:54;;;;;;;7.40;4.67;;;;;;;;;;4963017;28;20237;-75
2021/07/10 13:45:21;;;;;;;6.27;4.63;;;;;;;;;;4955770;28;20240;-76
2021/07/10 13:47:49;;;;;;;8.10;4.60;;;;;;;;;;4959820;28;20301;-76
2021/07/10 13:50:17;;;;;;;6.03;4.50;;;;;;;;;;4961026;28;20211;-76
2021/07/10 13:52:45;;;;;;;7.47;4.90;;;;;;;;;;4961265;28;20582;-76
2021/07/10 13:55:14;;;;;;;6.07;4.50;;;;;;;;;;4958706;28;20249;-76
2021/07/10 13:57:42;;;;;;;8.97;5.77;;;;;;;;;;4961875;28;20211;-76
2021/07/10 14:00:11;;;;;;;5.13;4.23;;;;;;;;;;4962048;28;20583;-76
2021/07/10 14:02:40;;;;;;;8.60;5.30;;;;;;;;;;4961334;28;20229;-76
2021/07/10 14:05:12;;;;;;;6.23;4.73;;;;;;;;;;4961251;28;20308;-76
2021/07/10 14:07:40;;;;;;;7.20;4.93;;;;;;;;;;4959953;28;20496;-76
2021/07/10 14:10:09;;;;;;;9.30;5.20;;;;;;;;;;4961331;28;20869;-76
2021/07/10 14:12:36;;;;;;;6.17;4.90;;;;;;;;;;4960586;28;20230;-76
2021/07/10 14:15:03;;;;;;;8.20;5.10;;;;;;;;;;4956850;28;20402;-76
2021/07/10 14:17:30;;;;;;;7.20;5.13;;;;;;;;;;4961679;28;20202;-76
2021/07/10 14:19:58;;;;;;;10.50;6.20;;;;;;;;;;4960834;28;20210;-76
2021/07/10 14:22:27;;;;;;;6.37;4.80;;;;;;;;;;4961638;28;20226;-76
2021/07/10 14:24:54;;;;;;;7.47;5.20;;;;;;;;;;4961021;28;20310;-76
2021/07/10 14:27:21;;;;;;;10.40;5.10;;;;;;;;;;4959055;28;20220;-76
2021/07/10 14:29:48;;;;;;;6.77;4.93;;;;;;;;;;4961561;28;20211;-76
2021/07/10 14:32:15;;;;;;;7.13;5.03;;;;;;;;;;4958190;28;20336;-76
2021/07/10 14:34:43;;;;;;;8.70;5.37;;;;;;;;;;4959718;28;20201;-76
2021/07/10 14:37:10;;;;;;;6.37;4.27;;;;;;;;;;4959426;28;20301;-76
2021/07/10 14:39:38;;;;;;;7.13;4.30;;;;;;;;;;4960228;28;20202;-76
2021/07/10 14:42:06;;;;;;;6.17;4.30;;;;;;;;;;4959701;28;20356;-76